Pagrindinis puslapis
METAR-TAF:

METAR-TAF

Oro uostai :

Džida, Saudo Arabija

platuma: 21-42N, ilguma: 039-11E, Aukštis: 15 m

Dabartinis oras

Ataskaita buvo paskelbta 21 minutes, ne 11:00 UTC
Vėjas 8 kt iš Vakarų/Pietvakarių
Temperatūra 35°C
Drėgmė 50%
Slėgis 1010 hPa
Matomumas: 7000 m

METAR: OEJN 141100Z 24008KT 7000 NSC 35/23 Q1010 NOSIG

Laikas: 14:21 (11:21 UTC)

Prognozė

Ataskaita buvo paskelbta 6 valandos ir 21 minutes, ne 05:00 UTC
Prognozė galioja nuo 14 metu 06 UTC su 15 metu 12 UTC
Vėjas 15 kt iš Vakarų/Pietvakarių
Matomumas: 7000 m
Mažai debesys ne aukštis 4000 ft
Laikinai
nuo 14 metu 12 UTC su 14 metu 20 UTC
Matomumas: 3500 m
Mažai debesys ne aukštis 3500 ft, Liūtiniai kamuoliniai debesys.
Dulkes pustymas
Tapsmas
nuo 14 metu 14 UTC su 14 metu 16 UTC
Vėjas 14 kt iš Šiaurės/Šiaurės Rytų

TAF: OEJN 140500Z 1406/1512 25015KT 7000 FEW040 TEMPO 1412/1420 3500 BLDU FEW035CB BECMG 1414/1416 02014KT

Orai ataskaitas ir orų prognozės (METAR, TAF).

turimą stotys yra geltonos ir raudonos taškus žemėlapyje.

Perkelti pele per norėdami pamatyti stoties vardą.

Tada spustelėkite, norėdami matyti oro stebėjimo ir prognozės.

Norėdami pakeisti žemėlapį: spustelėkite ant žalios mygtukų su juodo kryžiaus žemyn,; žalią mygtuką su brūkšneliu, jei norite nutolinti; arba žalių rodyklių gretimoms žemėlapius.


METAR-TAF: